Aviemore, United Kingdom

9:02 PM BST on July 29, 2015 (GMT +0100)
Aviemore | | Change Station
CLOSE
Current Station
Personal Weather Station
Location: Aviemore, SCOTLAND
Elevation: 719 ft
Nearby Weather Stations

Elev 719 ft 57.20 °N, 3.83 °W | Updated 0 second ago

Rain
Rain
47.5 °F
Feels Like 48 °F
N
1.0
Wind Variable Wind from East
Gusts 2.0 mph

Today
High -- | Low -- °F
--% Chance of Precip.
Yesterday
High -- | Low -- °F
Precip. -- in
5:06 AM 9:35 PM
Waxing Gibbous, 96% visible
Pressure 29.95 in
Visibility 6.2 miles
Clouds Few 800 ft
Scattered Clouds 3200 ft
Mostly Cloudy 4800 ft
Windchill 48 °F
Dew Point 45 °F
Humidity 91%
Rainfall 0.23 in
Snow Depth Not available.
UV 0 out of 12
Pollen Not available.
Air Quality Not available.
Flu Activity Not available.
METAR EGPE 291950Z 34012KT 9999 VCSH FEW008 SCT032 BKN048 11/07 Q1014

More Conditions Fewer Conditions

Pressure 29.95 in
Visibility 6.2 miles
Clouds Few 800 ft
Scattered Clouds 3200 ft
Mostly Cloudy 4800 ft
Windchill 48 °F
Dew Point 45 °F
Humidity 91%
Rainfall 0.23 in
Snow Depth Not available.
UV 0 out of 12
Pollen Not available.
Air Quality Not available.
Flu Activity Not available.
METAR EGPE 291950Z 34012KT 9999 VCSH FEW008 SCT032 BKN048 11/07 Q1014

More Conditions Fewer Conditions

10-Day Weather Forecast

×

Almanac

Astronomy

Jul. 29, 2015 Rise Set
Actual Time
Civil Twilight
Nautical Twilight
Astronomical Twilight
Moon
Length of Visible Light
Length of Day
Tomorrow will be .
, % of the Moon is Illuminated

Today's Extremes

Country Highs Country Lows

Community

WunderPhotos

Upload Photos

1,842,157 photos uploaded!

WunderBlogs® & News

Nearby

Air Quality

  Air Quality AQ Index Pollutant
Not available.

Snow Depth

Station Depth Elevation

Earthquake Activity

City Distance Mag. Time & Date
Minimum magnitude displayed is 2.5.

Coastal Water Temperatures

Place Temperature

Stations

Nearby Weather Stations

Station Location Temp. Windchill Dew Point Humidity Wind Precip. Elev Updated Type